Time,TemperatureF,DewpointF,PressureIn,WindDirection,WindDirectionDegrees,WindSpeedMPH,WindSpeedGustMPH,Humidity,HourlyPrecipIn,Conditions,Clouds,dailyrainin,SolarRadiationWatts/m^2,SoftwareType,DateUTC
2013-05-05 00:02:00,45.0,44.0,-100.00,South,171,2.0,6.0,96,0.01,,,0.98,0.000000,,2013-05-05 05:02:00,
2013-05-05 00:12:00,45.0,44.0,-100.00,South,171,2.0,6.0,96,0.01,,,0.98,0.000000,,2013-05-05 05:12:00,
2013-05-05 00:42:00,45.0,44.0,-100.00,West,268,1.0,4.0,98,0.00,,,0.90,0.000000,,2013-05-05 05:42:00,
2013-05-05 00:52:00,45.0,44.0,-100.00,West,268,1.0,4.0,98,0.00,,,0.90,0.000000,,2013-05-05 05:52:00,
2013-05-05 01:01:00,45.0,44.0,-100.00,West,268,1.0,4.0,98,0.00,,,0.90,0.000000,,2013-05-05 06:01:00,
2013-05-05 01:12:00,45.0,44.0,-100.00,West,268,1.0,4.0,98,0.00,,,0.90,0.000000,,2013-05-05 06:12:00,
2013-05-05 01:42:00,45.0,45.0,-100.00,NW,320,0.0,4.0,99,0.00,,,0.81,0.000000,,2013-05-05 06:42:00,
2013-05-05 01:52:00,45.0,45.0,-100.00,NW,320,0.0,4.0,99,0.00,,,0.81,0.000000,,2013-05-05 06:52:00,
2013-05-05 02:01:00,45.0,45.0,-100.00,NW,320,0.0,4.0,99,0.00,,,0.81,0.000000,,2013-05-05 07:01:00,
2013-05-05 02:11:00,45.0,45.0,-100.00,NW,320,0.0,4.0,99,0.00,,,0.81,0.000000,,2013-05-05 07:11:00,
2013-05-05 02:42:00,44.0,43.0,-100.00,WNW,287,2.0,5.0,98,0.00,,,0.72,0.000000,,2013-05-05 07:42:00,
2013-05-05 02:52:00,44.0,43.0,-100.00,WNW,287,2.0,5.0,98,0.00,,,0.72,0.000000,,2013-05-05 07:52:00,
2013-05-05 03:02:00,44.0,43.0,-100.00,WNW,287,2.0,5.0,98,0.00,,,0.72,0.000000,,2013-05-05 08:02:00,
2013-05-05 03:11:00,44.0,43.0,-100.00,WNW,287,2.0,5.0,98,0.00,,,0.72,0.000000,,2013-05-05 08:11:00,
2013-05-05 03:42:00,44.0,44.0,-100.00,WSW,248,3.0,5.0,99,0.00,,,0.63,0.000000,,2013-05-05 08:42:00,
2013-05-05 03:53:00,44.0,44.0,-100.00,WSW,248,3.0,5.0,99,0.00,,,0.63,0.000000,,2013-05-05 08:53:00,
2013-05-05 04:01:00,44.0,44.0,-100.00,WSW,248,3.0,5.0,99,0.00,,,0.63,0.000000,,2013-05-05 09:01:00,
2013-05-05 04:11:00,44.0,44.0,-100.00,WSW,248,3.0,5.0,99,0.00,,,0.63,0.000000,,2013-05-05 09:11:00,
2013-05-05 04:42:00,44.0,44.0,-100.00,West,269,3.0,5.0,99,0.00,,,0.53,0.000000,,2013-05-05 09:42:00,
2013-05-05 04:52:00,44.0,44.0,-100.00,West,269,3.0,5.0,99,0.00,,,0.53,0.000000,,2013-05-05 09:52:00,
2013-05-05 05:03:00,44.0,44.0,-100.00,West,269,3.0,5.0,99,0.00,,,0.53,0.000000,,2013-05-05 10:03:00,
2013-05-05 05:12:00,44.0,44.0,-100.00,West,269,3.0,5.0,99,0.00,,,0.53,0.000000,,2013-05-05 10:12:00,
2013-05-05 05:32:00,44.0,43.0,-100.00,WSW,248,4.0,7.0,98,0.00,,,0.41,0.000000,,2013-05-05 10:32:00,
2013-05-05 05:42:00,44.0,43.0,-100.00,WSW,248,4.0,7.0,98,0.00,,,0.41,0.000000,,2013-05-05 10:42:00,
2013-05-05 05:53:00,44.0,43.0,-100.00,WSW,248,4.0,7.0,98,0.00,,,0.41,0.000000,,2013-05-05 10:53:00,
2013-05-05 06:01:00,44.0,43.0,-100.00,WSW,248,4.0,7.0,98,0.00,,,0.41,0.000000,,2013-05-05 11:01:00,
2013-05-05 06:12:00,44.0,43.0,-100.00,WSW,248,4.0,7.0,98,0.00,,,0.41,0.000000,,2013-05-05 11:12:00,
2013-05-05 06:32:00,45.0,44.0,-100.00,West,268,2.0,7.0,97,0.00,,,0.30,1.000000,,2013-05-05 11:32:00,
2013-05-05 06:42:00,45.0,44.0,-100.00,West,268,2.0,7.0,97,0.00,,,0.30,1.000000,,2013-05-05 11:42:00,
2013-05-05 06:52:00,45.0,44.0,-100.00,West,268,2.0,7.0,97,0.00,,,0.30,1.000000,,2013-05-05 11:52:00,
2013-05-05 07:02:00,45.0,44.0,-100.00,West,268,2.0,7.0,97,0.00,,,0.30,1.000000,,2013-05-05 12:02:00,
2013-05-05 07:11:00,45.0,44.0,-100.00,West,268,2.0,7.0,97,0.00,,,0.30,1.000000,,2013-05-05 12:11:00,
2013-05-05 07:42:00,46.0,45.0,-100.00,WNW,289,3.0,6.0,97,0.00,,,0.18,19.000000,,2013-05-05 12:42:00,
2013-05-05 07:52:00,46.0,45.0,-100.00,WNW,289,3.0,6.0,97,0.00,,,0.18,19.000000,,2013-05-05 12:52:00,
2013-05-05 08:01:00,46.0,45.0,-100.00,WNW,289,3.0,6.0,97,0.00,,,0.18,19.000000,,2013-05-05 13:01:00,
2013-05-05 08:11:00,46.0,45.0,-100.00,WNW,289,3.0,6.0,97,0.00,,,0.18,19.000000,,2013-05-05 13:11:00,
2013-05-05 08:42:00,48.0,46.0,-100.00,NNW,331,5.0,9.0,94,0.00,,,0.10,96.000000,,2013-05-05 13:42:00,
2013-05-05 08:52:00,48.0,46.0,-100.00,NNW,331,5.0,9.0,94,0.00,,,0.10,96.000000,,2013-05-05 13:52:00,
2013-05-05 09:02:00,48.0,46.0,-100.00,NNW,331,5.0,9.0,94,0.00,,,0.10,96.000000,,2013-05-05 14:02:00,
2013-05-05 09:11:00,48.0,46.0,-100.00,NNW,331,5.0,9.0,94,0.00,,,0.10,96.000000,,2013-05-05 14:11:00,
2013-05-05 09:42:00,50.0,48.0,-100.00,West,272,4.0,10.0,92,0.00,,,0.04,176.000000,,2013-05-05 14:42:00,
2013-05-05 09:52:00,50.0,48.0,-100.00,West,272,4.0,10.0,92,0.00,,,0.04,176.000000,,2013-05-05 14:52:00,
2013-05-05 10:02:00,50.0,48.0,-100.00,West,272,4.0,10.0,92,0.00,,,0.04,176.000000,,2013-05-05 15:02:00,
2013-05-05 10:11:00,50.0,48.0,-100.00,West,272,4.0,10.0,92,0.00,,,0.04,176.000000,,2013-05-05 15:11:00,
2013-05-05 10:43:00,50.0,47.0,-100.00,West,265,4.0,8.0,91,0.00,,,0.02,131.000000,,2013-05-05 15:43:00,
2013-05-05 10:53:00,50.0,47.0,-100.00,West,265,4.0,8.0,91,0.00,,,0.02,131.000000,,2013-05-05 15:53:00,
2013-05-05 11:03:00,50.0,47.0,-100.00,West,265,4.0,8.0,91,0.00,,,0.02,131.000000,,2013-05-05 16:03:00,
2013-05-05 11:12:00,50.0,47.0,-100.00,West,265,4.0,8.0,91,0.00,,,0.02,131.000000,,2013-05-05 16:12:00,
2013-05-05 11:42:00,53.0,49.0,-100.00,WSW,255,4.0,7.0,87,0.00,,,0.02,183.000000,,2013-05-05 16:42:00,
2013-05-05 11:53:00,53.0,49.0,-100.00,WSW,255,4.0,7.0,87,0.00,,,0.02,183.000000,,2013-05-05 16:53:00,
2013-05-05 12:02:00,53.0,49.0,-100.00,WSW,255,4.0,7.0,87,0.00,,,0.02,183.000000,,2013-05-05 17:02:00,
2013-05-05 12:12:00,53.0,49.0,-100.00,WSW,255,4.0,7.0,87,0.00,,,0.02,183.000000,,2013-05-05 17:12:00,
2013-05-05 12:42:00,57.0,50.0,-100.00,West,262,5.0,11.0,77,0.00,,,0.02,375.000000,,2013-05-05 17:42:00,
2013-05-05 12:52:00,57.0,50.0,-100.00,West,262,5.0,11.0,77,0.00,,,0.02,375.000000,,2013-05-05 17:52:00,
2013-05-05 13:01:00,57.0,50.0,-100.00,West,262,5.0,11.0,77,0.00,,,0.02,375.000000,,2013-05-05 18:01:00,
2013-05-05 13:12:00,57.0,50.0,-100.00,West,262,5.0,11.0,77,0.00,,,0.02,375.000000,,2013-05-05 18:12:00,
2013-05-05 13:42:00,60.0,50.0,-100.00,WNW,283,4.0,8.0,70,0.00,,,0.02,363.000000,,2013-05-05 18:42:00,
2013-05-05 13:52:00,60.0,50.0,-100.00,WNW,283,4.0,8.0,70,0.00,,,0.02,363.000000,,2013-05-05 18:52:00,
2013-05-05 14:01:00,60.0,50.0,-100.00,WNW,283,4.0,8.0,70,0.00,,,0.02,363.000000,,2013-05-05 19:01:00,
2013-05-05 14:11:00,60.0,50.0,-100.00,WNW,283,4.0,8.0,70,0.00,,,0.02,363.000000,,2013-05-05 19:11:00,
2013-05-05 14:42:00,60.0,49.0,-100.00,WNW,298,5.0,9.0,68,0.00,,,0.02,398.000000,,2013-05-05 19:42:00,
2013-05-05 14:52:00,60.0,49.0,-100.00,WNW,298,5.0,9.0,68,0.00,,,0.02,398.000000,,2013-05-05 19:52:00,
2013-05-05 15:01:00,60.0,49.0,-100.00,WNW,298,5.0,9.0,68,0.00,,,0.02,398.000000,,2013-05-05 20:01:00,
2013-05-05 15:11:00,60.0,49.0,-100.00,WNW,298,5.0,9.0,68,0.00,,,0.02,398.000000,,2013-05-05 20:11:00,
2013-05-05 15:42:00,57.0,49.0,-100.00,NW,304,4.0,8.0,74,0.00,,,0.02,193.000000,,2013-05-05 20:42:00,
2013-05-05 15:52:00,57.0,49.0,-100.00,NW,304,4.0,8.0,74,0.00,,,0.02,193.000000,,2013-05-05 20:52:00,
2013-05-05 16:02:00,57.0,49.0,-100.00,NW,304,4.0,8.0,74,0.00,,,0.02,193.000000,,2013-05-05 21:02:00,
2013-05-05 16:11:00,57.0,49.0,-100.00,NW,304,4.0,8.0,74,0.00,,,0.02,193.000000,,2013-05-05 21:11:00,
2013-05-05 16:42:00,57.0,48.0,-100.00,WNW,289,5.0,9.0,73,0.00,,,0.01,130.000000,,2013-05-05 21:42:00,
2013-05-05 16:53:00,57.0,48.0,-100.00,WNW,289,5.0,9.0,73,0.00,,,0.01,130.000000,,2013-05-05 21:53:00,
2013-05-05 17:02:00,57.0,48.0,-100.00,WNW,289,5.0,9.0,73,0.00,,,0.01,130.000000,,2013-05-05 22:02:00,
2013-05-05 17:12:00,57.0,48.0,-100.00,WNW,289,5.0,9.0,73,0.00,,,0.01,130.000000,,2013-05-05 22:12:00,
2013-05-05 17:42:00,57.0,52.0,-100.00,WNW,301,2.0,8.0,83,0.00,,,0.01,89.000000,,2013-05-05 22:42:00,
2013-05-05 17:52:00,57.0,52.0,-100.00,WNW,301,2.0,8.0,83,0.00,,,0.01,89.000000,,2013-05-05 22:52:00,
2013-05-05 18:02:00,57.0,52.0,-100.00,WNW,301,2.0,8.0,83,0.00,,,0.01,89.000000,,2013-05-05 23:02:00,
2013-05-05 18:11:00,57.0,52.0,-100.00,WNW,301,2.0,8.0,83,0.00,,,0.01,89.000000,,2013-05-05 23:11:00,
2013-05-05 18:32:00,58.0,49.0,-100.00,NW,305,5.0,11.0,73,0.00,,,0.01,186.000000,,2013-05-05 23:32:00,
2013-05-05 18:42:00,58.0,49.0,-100.00,NW,305,5.0,11.0,73,0.00,,,0.01,186.000000,,2013-05-05 23:42:00,
2013-05-05 18:52:00,58.0,49.0,-100.00,NW,305,5.0,11.0,73,0.00,,,0.01,186.000000,,2013-05-05 23:52:00,
2013-05-05 19:01:00,58.0,49.0,-100.00,NW,305,5.0,11.0,73,0.00,,,0.01,186.000000,,2013-05-06 00:01:00,
2013-05-05 19:11:00,58.0,49.0,-100.00,NW,305,5.0,11.0,73,0.00,,,0.01,186.000000,,2013-05-06 00:11:00,
2013-05-05 19:42:00,56.0,50.0,-100.00,NW,324,4.0,8.0,80,0.00,,,0.01,51.000000,,2013-05-06 00:42:00,
2013-05-05 19:52:00,56.0,50.0,-100.00,NW,324,4.0,8.0,80,0.00,,,0.01,51.000000,,2013-05-06 00:52:00,
2013-05-05 20:01:00,56.0,50.0,-100.00,NW,324,4.0,8.0,80,0.00,,,0.01,51.000000,,2013-05-06 01:01:00,
2013-05-05 20:11:00,56.0,50.0,-100.00,NW,324,4.0,8.0,80,0.00,,,0.01,51.000000,,2013-05-06 01:11:00,
2013-05-05 20:42:00,55.0,51.0,-100.00,NW,321,3.0,4.0,86,0.00,,,0.01,5.000000,,2013-05-06 01:42:00,
2013-05-05 20:52:00,55.0,51.0,-100.00,NW,321,3.0,4.0,86,0.00,,,0.01,5.000000,,2013-05-06 01:52:00,
2013-05-05 21:02:00,55.0,51.0,-100.00,NW,321,3.0,4.0,86,0.00,,,0.01,5.000000,,2013-05-06 02:02:00,
2013-05-05 21:12:00,55.0,51.0,-100.00,NW,321,3.0,4.0,86,0.00,,,0.01,5.000000,,2013-05-06 02:12:00,
2013-05-05 21:42:00,52.0,51.0,-100.00,West,261,2.0,3.0,97,0.00,,,0.01,0.000000,,2013-05-06 02:42:00,
2013-05-05 21:52:00,52.0,51.0,-100.00,West,261,2.0,3.0,97,0.00,,,0.01,0.000000,,2013-05-06 02:52:00,
2013-05-05 22:02:00,52.0,51.0,-100.00,West,261,2.0,3.0,97,0.00,,,0.01,0.000000,,2013-05-06 03:02:00,
2013-05-05 22:11:00,52.0,51.0,-100.00,West,261,2.0,3.0,97,0.00,,,0.01,0.000000,,2013-05-06 03:11:00,
2013-05-05 22:42:00,52.0,51.0,-100.00,WNW,292,2.0,4.0,95,0.00,,,0.01,0.000000,,2013-05-06 03:42:00,
2013-05-05 22:52:00,52.0,51.0,-100.00,WNW,292,2.0,4.0,95,0.00,,,0.01,0.000000,,2013-05-06 03:52:00,
2013-05-05 23:02:00,52.0,51.0,-100.00,WNW,292,2.0,4.0,95,0.00,,,0.01,0.000000,,2013-05-06 04:02:00,
2013-05-05 23:12:00,52.0,51.0,-100.00,WNW,292,2.0,4.0,95,0.00,,,0.01,0.000000,,2013-05-06 04:12:00,
2013-05-05 23:43:00,53.0,52.0,-100.00,WNW,300,3.0,9.0,95,0.00,,,0.00,0.000000,,2013-05-06 04:43:00,
2013-05-05 23:53:00,53.0,52.0,-100.00,WNW,300,3.0,9.0,95,0.00,,,0.00,0.000000,,2013-05-06 04:53:00,